Time;durP1;ratioP1;P1;durP2;ratioP2;P2;SDS_P1;SDS_P2;PMS_P1;PMS_P2;Temp;Humidity;BMP_temperature;BMP_pressure;BME280_temperature;BME280_humidity;BME280_pressure;Samples;Min_cycle;Max_cycle;Signal;HPM_P1;HPM_P2
2022/10/05 00:01:48;;;;;;;4.30;2.60;;;;;;;8.23;100.00;99692.87;1641780;87;20999;-69
2022/10/05 00:04:21;;;;;;;3.90;2.85;;;;;;;8.23;100.00;99688.13;1640753;87;21455;-70
2022/10/05 00:07:17;;;;;;;7.05;3.45;;;;;;;8.21;100.00;99691.21;1596175;89;21283;-70
2022/10/05 00:09:48;;;;;;;5.08;2.98;;;;;;;8.19;100.00;99691.73;1594168;90;20999;-70
2022/10/05 00:12:17;;;;;;;3.37;3.08;;;;;;;8.17;100.00;99700.84;1593198;89;20984;-70
2022/10/05 00:14:45;;;;;;;3.27;2.77;;;;;;;8.17;100.00;99706.47;1594023;90;21091;-70
2022/10/05 00:17:24;;;;;;;4.55;2.87;;;;;;;8.16;100.00;99704.77;1585502;90;21066;-70
2022/10/05 00:19:53;;;;;;;4.28;2.87;;;;;;;8.14;100.00;99711.28;1594074;90;21579;-70
2022/10/05 00:22:30;;;;;;;4.87;2.95;;;;;;;8.15;100.00;99709.54;1594092;90;21031;-70
2022/10/05 00:25:01;;;;;;;3.33;3.02;;;;;;;8.15;100.00;99711.69;1585522;90;21028;-69
2022/10/05 00:27:32;;;;;;;3.15;2.85;;;;;;;8.15;100.00;99716.02;1594137;90;21011;-69
2022/10/05 00:30:01;;;;;;;4.75;3.05;;;;;;;8.14;100.00;99714.31;1593826;90;21011;-70
2022/10/05 00:32:28;;;;;;;3.25;2.95;;;;;;;8.15;100.00;99718.61;1585502;90;21158;-70
2022/10/05 00:34:54;;;;;;;5.85;3.00;;;;;;;8.14;100.00;99729.42;1593980;90;20990;-70
2022/10/05 00:37:21;;;;;;;3.92;2.60;;;;;;;8.15;100.00;99727.23;1576371;90;21530;-70
2022/10/05 00:39:48;;;;;;;3.30;2.87;;;;;;;8.17;100.00;99731.08;1594111;90;21491;-70
2022/10/05 00:42:31;;;;;;;3.92;2.77;;;;;;;8.17;100.00;99731.93;1594145;90;20991;-69
2022/10/05 00:45:30;;;;;;;4.00;2.65;;;;;;;8.19;100.00;99730.59;1594073;90;21199;-69
2022/10/05 00:48:17;;;;;;;3.72;2.80;;;;;;;8.16;100.00;99735.41;1593985;90;20991;-69
2022/10/05 00:51:18;;;;;;;4.17;2.90;;;;;;;8.15;100.00;99739.34;1594033;90;21019;-69
2022/10/05 00:54:21;;;;;;;4.22;3.37;;;;;;;8.12;100.00;99742.86;1591059;89;21003;-69
2022/10/05 00:57:12;;;;;;;7.42;3.37;;;;;;;8.09;100.00;99748.56;1589185;90;21475;-69
2022/10/05 00:59:59;;;;;;;3.67;3.37;;;;;;;8.05;100.00;99759.88;1589078;90;21213;-69
2022/10/05 01:03:04;;;;;;;3.25;2.40;;;;;;;8.02;100.00;99756.92;1587521;90;21003;-69
2022/10/05 01:05:45;;;;;;;3.00;2.60;;;;;;;7.99;100.00;99758.33;1592497;89;21035;-69
2022/10/05 01:08:36;;;;;;;3.77;2.98;;;;;;;7.95;100.00;99762.73;1571973;90;21038;-69
2022/10/05 01:11:27;;;;;;;4.72;3.05;;;;;;;7.93;100.00;99767.10;1571919;91;21054;-69
2022/10/05 01:14:15;;;;;;;4.67;3.00;;;;;;;7.89;100.00;99777.12;1592911;90;21207;-70
2022/10/05 01:17:10;;;;;;;4.50;3.35;;;;;;;7.87;100.00;99781.49;1592977;90;21039;-70
2022/10/05 01:20:15;;;;;;;3.80;3.35;;;;;;;7.85;100.00;99780.68;1594545;89;21027;-70
2022/10/05 01:23:25;;;;;;;3.50;2.80;;;;;;;7.81;100.00;99782.94;1593147;90;21038;-70
2022/10/05 01:26:00;;;;;;;2.80;2.60;;;;;;;7.79;100.00;99791.66;1552223;92;21200;-70
2022/10/05 01:28:33;;;;;;;3.65;3.05;;;;;;;7.77;100.00;99785.66;1540718;92;21289;-70
2022/10/05 01:31:20;;;;;;;3.08;2.70;;;;;;;7.75;100.00;99796.05;1564474;91;21158;-70
2022/10/05 01:34:32;;;;;;;4.47;2.85;;;;;;;7.74;100.00;99799.53;1548494;92;21059;-70
2022/10/05 01:37:07;;;;;;;3.60;2.92;;;;;;;7.76;100.00;99804.23;1573900;89;20995;-70
2022/10/05 01:39:58;;;;;;;3.40;2.60;;;;;;;7.81;100.00;99811.86;1593516;90;21035;-70
2022/10/05 01:42:51;;;;;;;3.80;3.10;;;;;;;7.87;100.00;99819.05;1593085;90;21207;-70
2022/10/05 01:45:38;;;;;;;4.33;3.33;;;;;;;7.96;100.00;99817.98;1594000;89;20990;-70
2022/10/05 01:48:08;;;;;;;3.98;2.95;;;;;;;8.03;100.00;99816.91;1593114;90;21031;-70
2022/10/05 01:51:03;;;;;;;4.67;2.80;;;;;;;8.10;100.00;99813.28;1593391;90;21015;-70
2022/10/05 01:53:58;;;;;;;4.30;2.83;;;;;;;8.18;100.00;99824.31;1602724;88;21544;-69
2022/10/05 01:56:45;;;;;;;3.50;2.83;;;;;;;8.24;100.00;99819.39;1619195;87;21212;-69
2022/10/05 01:59:51;;;;;;;3.67;2.85;;;;;;;8.29;100.00;99821.42;1622065;88;21566;-69
2022/10/05 02:02:18;;;;;;;4.08;2.90;;;;;;;8.34;100.00;99821.34;1626826;87;21037;-69
2022/10/05 02:05:06;;;;;;;4.42;3.20;;;;;;;8.38;100.00;99818.63;1634093;87;20998;-69
2022/10/05 02:07:51;;;;;;;4.75;3.00;;;;;;;8.39;100.00;99819.04;1634236;87;21609;-69
2022/10/05 02:10:29;;;;;;;3.30;2.98;;;;;;;8.42;100.00;99826.70;1634162;87;21181;-69
2022/10/05 02:13:03;;;;;;;3.17;2.80;;;;;;;8.46;100.00;99819.70;1622863;87;20987;-69
2022/10/05 02:15:39;;;;;;;3.80;2.90;;;;;;;8.49;100.00;99828.70;1622081;88;21025;-69
2022/10/05 02:18:13;;;;;;;3.47;2.60;;;;;;;8.51;100.00;99819.98;1622234;88;21078;-70
2022/10/05 02:20:40;;;;;;;4.47;2.70;;;;;;;8.53;100.00;99830.32;1622125;88;21223;-70
2022/10/05 02:23:15;;;;;;;3.47;2.52;;;;;;;8.55;100.00;99829.39;1622155;88;21145;-70
2022/10/05 02:25:44;;;;;;;4.45;3.05;;;;;;;8.56;100.00;99824.61;1622500;88;21090;-70
2022/10/05 02:28:34;;;;;;;4.62;2.92;;;;;;;8.59;100.00;99830.98;1623942;87;21517;-70
2022/10/05 02:31:12;;;;;;;4.05;3.10;;;;;;;8.63;100.00;99836.94;1623176;87;21054;-70
2022/10/05 02:33:39;;;;;;;4.85;2.35;;;;;;;8.67;100.00;99848.08;1622160;88;21498;-69
2022/10/05 02:36:18;;;;;;;2.98;2.60;;;;;;;8.68;100.00;99845.45;1621744;88;21899;-70
2022/10/05 02:39:06;;;;;;;4.67;3.08;;;;;;;8.71;100.00;99849.70;1619387;88;20987;-70
2022/10/05 02:41:48;;;;;;;3.27;2.92;;;;;;;8.75;100.00;99852.17;1626754;87;21202;-70
2022/10/05 02:44:28;;;;;;;2.95;2.10;;;;;;;8.79;100.00;99853.77;1634115;87;20994;-70
2022/10/05 02:47:18;;;;;;;3.37;3.08;;;;;;;8.83;100.00;99853.23;1634149;87;21030;-71
2022/10/05 02:50:09;;;;;;;4.45;3.05;;;;;;;8.88;100.00;99857.41;1634083;87;21184;-69
2022/10/05 02:53:03;;;;;;;5.72;2.80;;;;;;;8.92;100.00;99860.77;1630602;87;20995;-69
2022/10/05 02:55:33;;;;;;;;;;;;;;;8.97;100.00;99869.28;1609838;89;21101;-69
2022/10/05 02:58:14;;;;;;;2.62;2.42;;;;;;;9.02;100.00;99867.83;1607621;88;20179;-69
2022/10/05 03:00:49;;;;;;;6.08;3.00;;;;;;;9.03;100.00;99870.83;1606897;89;21021;-69
2022/10/05 03:03:33;;;;;;;4.25;3.40;;;;;;;9.05;100.00;99875.08;1589993;89;21123;-69
2022/10/05 03:06:11;;;;;;;4.22;3.22;;;;;;;9.08;100.00;99871.55;1606614;89;21159;-69
2022/10/05 03:08:58;;;;;;;3.10;2.70;;;;;;;9.11;100.00;99873.62;1605190;89;21078;-70
2022/10/05 03:11:42;;;;;;;2.42;2.20;;;;;;;9.13;100.00;99874.42;1652076;86;21035;-70
2022/10/05 03:14:18;;;;;;;3.12;2.83;;;;;;;9.14;100.00;99874.83;1653242;86;21139;-70
2022/10/05 03:17:19;;;;;;;4.05;3.22;;;;;;;9.14;100.00;99872.69;1653885;86;21461;-70
2022/10/05 03:20:03;;;;;;;4.72;3.00;;;;;;;9.14;100.00;99872.69;1653257;86;21013;-70
2022/10/05 03:22:54;;;;;;;3.45;2.52;;;;;;;9.12;100.00;99870.13;1653404;86;21008;-70
2022/10/05 03:25:55;;;;;;;4.20;2.70;;;;;;;9.11;100.00;99871.02;1604589;89;21545;-70
2022/10/05 03:28:58;;;;;;;3.70;2.75;;;;;;;9.07;100.00;99868.11;1653324;86;21547;-70
2022/10/05 03:31:41;;;;;;;;;;;;;;;9.04;100.00;99872.53;1632538;88;21470;-70
2022/10/05 03:34:16;;;;;;;3.55;3.10;;;;;;;9.02;100.00;99871.72;1630316;87;20460;-70
2022/10/05 03:36:52;;;;;;;4.17;3.00;;;;;;;8.98;100.00;99878.32;1640031;86;21088;-70
2022/10/05 03:39:33;;;;;;;3.83;2.85;;;;;;;8.99;100.00;99878.70;1653423;86;21048;-70
2022/10/05 03:42:20;;;;;;;6.58;3.52;;;;;;;9.02;100.00;99885.55;1653235;86;21095;-70
2022/10/05 03:45:22;;;;;;;3.30;2.67;;;;;;;9.02;100.00;99880.80;1653321;86;21453;-70
2022/10/05 03:48:08;;;;;;;3.67;3.37;;;;;;;8.99;100.00;99881.28;1653375;86;20996;-70
2022/10/05 03:50:53;;;;;;;5.15;2.80;;;;;;;8.98;100.00;99884.80;1653179;86;21004;-70
2022/10/05 03:53:22;;;;;;;3.60;3.25;;;;;;;8.98;100.00;99892.59;1652822;86;21098;-70
2022/10/05 03:55:54;;;;;;;5.15;2.87;;;;;;;8.98;100.00;99891.30;1621016;88;21019;-71
2022/10/05 03:58:32;;;;;;;4.45;2.80;;;;;;;8.98;100.00;99896.93;1632004;87;21153;-71
2022/10/05 04:01:02;;;;;;;3.90;3.42;;;;;;;8.95;100.00;99904.34;1630811;87;21045;-71
2022/10/05 04:03:40;;;;;;;3.90;2.85;;;;;;;8.93;100.00;99907.42;1608256;88;21064;-70
2022/10/05 04:06:19;;;;;;;3.27;2.95;;;;;;;8.93;100.00;99907.42;1629540;88;21435;-70
2022/10/05 04:09:00;;;;;;;4.03;2.80;;;;;;;8.94;100.00;99910.42;1631790;88;21352;-71
2022/10/05 04:11:32;;;;;;;2.62;2.42;;;;;;;8.96;100.00;99907.79;1629567;88;21148;-68
2022/10/05 04:14:23;;;;;;;3.10;2.60;;;;;;;8.99;100.00;99908.53;1630721;86;21038;-70
2022/10/05 04:17:00;;;;;;;4.58;2.72;;;;;;;9.05;100.00;99915.30;1633086;88;20982;-69
2022/10/05 04:19:44;;;;;;;4.67;2.83;;;;;;;9.10;100.00;99908.69;1605917;88;21033;-70
2022/10/05 04:22:24;;;;;;;5.08;3.55;;;;;;;9.14;100.00;99914.20;1633165;87;21166;-69
2022/10/05 04:24:59;;;;;;;3.35;3.00;;;;;;;9.17;100.00;99912.82;1629472;88;21633;-70
2022/10/05 04:27:38;;;;;;;4.30;2.95;;;;;;;9.19;100.00;99916.23;1630742;87;21007;-69
2022/10/05 04:30:13;;;;;;;5.83;2.70;;;;;;;9.24;100.00;99919.52;1630684;87;20970;-69
2022/10/05 04:32:52;;;;;;;4.30;3.00;;;;;;;9.26;100.00;99919.03;1630771;88;21061;-69
2022/10/05 04:35:41;;;;;;;5.53;3.17;;;;;;;9.28;100.00;99922.44;1630688;87;21129;-69
2022/10/05 04:38:22;;;;;;;5.20;3.27;;;;;;;9.29;100.00;99922.39;1631090;87;21487;-69
2022/10/05 04:41:30;;;;;;;4.00;2.50;;;;;;;9.31;100.00;99924.50;1630717;88;21343;-69
2022/10/05 04:44:31;;;;;;;4.40;2.60;;;;;;;9.35;100.00;99926.56;1630753;88;21530;-69
2022/10/05 04:47:34;;;;;;;3.50;2.87;;;;;;;9.40;100.00;99929.00;1630650;87;20986;-69
2022/10/05 04:50:18;;;;;;;6.17;3.17;;;;;;;9.44;100.00;99932.77;1632403;88;21102;-69
2022/10/05 04:53:12;;;;;;;4.45;2.95;;;;;;;9.46;100.00;99930.98;1630939;87;21155;-69
2022/10/05 04:56:04;;;;;;;3.00;2.50;;;;;;;9.49;100.00;99931.34;1654883;86;21037;-69
2022/10/05 04:58:54;;;;;;;4.37;2.98;;;;;;;9.53;100.00;99936.41;1661771;86;21296;-69
2022/10/05 05:01:44;;;;;;;4.12;3.67;;;;;;;9.58;100.00;99935.83;1660005;86;21046;-69
2022/10/05 05:04:56;;;;;;;3.40;2.98;;;;;;;9.64;100.00;99942.11;1659875;86;21022;-71
2022/10/05 05:07:40;;;;;;;4.60;2.92;;;;;;;9.70;100.00;99953.22;1672612;85;21502;-70
2022/10/05 05:10:42;;;;;;;5.40;2.62;;;;;;;9.76;100.00;99954.34;1655639;86;21464;-70
2022/10/05 05:13:51;;;;;;;3.70;3.30;;;;;;;9.82;100.00;99961.48;1680030;85;21062;-69
2022/10/05 05:16:36;;;;;;;3.95;2.75;;;;;;;9.87;100.00;99957.45;1686724;85;20987;-69
2022/10/05 05:19:34;;;;;;;4.47;2.67;;;;;;;9.92;100.00;99958.17;1664003;85;21574;-69
2022/10/05 05:22:30;;;;;;;4.28;3.10;;;;;;;9.99;100.00;99974.80;1679291;85;21263;-69
2022/10/05 05:25:40;;;;;;;3.80;2.90;;;;;;;10.05;100.00;99978.97;1680036;85;20975;-68
2022/10/05 05:28:33;;;;;;;8.43;3.80;;;;;;;10.12;100.00;99983.09;1680113;85;21462;-68
2022/10/05 05:31:09;;;;;;;3.10;2.80;;;;;;;10.20;100.00;99984.16;1680153;85;21053;-69
2022/10/05 05:34:02;;;;;;;3.50;3.00;;;;;;;10.25;100.00;100002.62;1680122;85;21011;-70
2022/10/05 05:36:42;;;;;;;5.40;3.80;;;;;;;10.29;100.00;100002.92;1677628;85;21265;-70
2022/10/05 05:39:27;;;;;;;2.95;2.27;;;;;;;10.33;100.00;100015.39;1678346;85;21598;-70
2022/10/05 05:42:21;;;;;;;3.45;2.62;;;;;;;10.39;100.00;100018.25;1678401;85;21074;-70
2022/10/05 05:44:51;;;;;;;5.53;3.37;;;;;;;10.43;100.00;100015.92;1678606;85;21601;-70
2022/10/05 05:47:38;;;;;;;5.58;3.12;;;;;;;10.43;100.00;100021.13;1678513;85;21537;-70
2022/10/05 05:50:34;;;;;;;5.10;3.10;;;;;;;10.45;100.00;100024.53;1647474;86;21251;-70
2022/10/05 05:53:28;;;;;;;3.27;2.72;;;;;;;10.51;100.00;100025.20;1656602;85;21009;-69
2022/10/05 05:56:12;;;;;;;3.95;2.52;;;;;;;10.57;100.00;100025.45;1637314;86;21045;-70
2022/10/05 05:58:51;;;;;;;5.67;2.95;;;;;;;10.64;100.00;100029.54;1634304;87;21027;-70
2022/10/05 06:01:38;;;;;;;4.95;3.45;;;;;;;10.71;100.00;100029.75;1634721;87;21149;-70
2022/10/05 06:04:21;;;;;;;6.37;3.60;;;;;;;10.76;100.00;100030.91;1653490;86;21506;-69
2022/10/05 06:06:51;;;;;;;5.25;3.08;;;;;;;10.82;100.00;100039.78;1645701;86;20985;-69
2022/10/05 06:09:38;;;;;;;4.05;3.67;;;;;;;10.88;100.00;100042.19;1635009;87;21687;-69
2022/10/05 06:12:21;;;;;;;5.75;3.90;;;;;;;10.93;100.00;100046.80;1632689;87;21090;-69
2022/10/05 06:15:14;;;;;;;6.15;3.52;;;;;;;11.01;100.00;100046.92;1632824;87;21613;-69
2022/10/05 06:17:53;;;;;;;3.20;2.50;;;;;;;11.07;100.00;100051.08;1634824;87;20971;-70
2022/10/05 06:20:41;;;;;;;4.42;2.20;;;;;;;11.13;100.00;100055.23;1635156;86;21045;-69
2022/10/05 06:23:32;;;;;;;2.98;2.30;;;;;;;11.19;100.00;100055.84;1648551;86;21646;-70
2022/10/05 06:26:28;;;;;;;4.05;2.47;;;;;;;11.27;100.00;100058.20;1662087;86;21129;-70
2022/10/05 06:29:04;;;;;;;4.03;3.05;;;;;;;11.34;100.00;100065.75;1660800;85;21058;-70
2022/10/05 06:31:58;;;;;;;3.55;2.50;;;;;;;11.44;100.00;100062.81;1662308;86;21252;-71
2022/10/05 06:34:59;;;;;;;5.28;3.08;;;;;;;11.51;100.00;100068.20;1662512;85;20963;-71
2022/10/05 06:37:51;;;;;;;4.12;2.87;;;;;;;11.57;100.00;100066.70;1637908;85;21013;-71
2022/10/05 06:40:59;;;;;;;3.10;2.62;;;;;;;11.65;100.00;100071.16;1656679;86;21533;-70
2022/10/05 06:43:51;;;;;;;12.98;4.78;;;;;;;11.72;100.00;100073.95;1640675;86;21037;-70
2022/10/05 06:46:27;;;;;;;5.45;3.17;;;;;;;11.79;100.00;100075.92;1617527;85;21173;-70
2022/10/05 06:49:17;;;;;;;6.05;3.58;;;;;;;11.81;100.00;100084.05;1645864;86;21233;-70
2022/10/05 06:51:57;;;;;;;7.45;3.22;;;;;;;11.86;100.00;100082.59;1618342;85;21608;-69
2022/10/05 06:54:56;;;;;;;4.13;3.13;;;;;;;11.93;100.00;100090.14;1661607;85;21002;-70
2022/10/05 06:57:51;;;;;;;4.25;3.45;;;;;;;12.01;100.00;100089.38;1666015;85;21510;-71
2022/10/05 07:00:29;;;;;;;4.33;2.37;;;;;;;12.14;100.00;100092.84;1674088;85;21191;-68
2022/10/05 07:03:23;;;;;;;6.78;2.85;;;;;;;12.26;100.00;100097.13;1677549;84;21139;-72
2022/10/05 07:06:19;;;;;;;3.10;2.55;;;;;;;12.34;99.27;100095.55;1679231;85;21073;-71
2022/10/05 07:09:07;;;;;;;2.87;2.67;;;;;;;12.39;99.49;100101.41;1669118;85;21053;-70
2022/10/05 07:11:59;;;;;;;4.17;2.85;;;;;;;12.50;98.94;100101.86;1656479;85;21094;-70
2022/10/05 07:14:53;;;;;;;4.17;2.75;;;;;;;12.58;97.08;100103.72;1675281;85;21193;-71
2022/10/05 07:17:35;;;;;;;3.37;2.55;;;;;;;12.64;96.88;100102.16;1685196;84;21054;-70
2022/10/05 07:20:18;;;;;;;2.98;2.60;;;;;;;12.77;96.24;100097.31;1663352;84;21073;-70
2022/10/05 07:23:02;;;;;;;4.83;3.27;;;;;;;12.88;93.34;100100.78;1689125;84;21061;-70
2022/10/05 07:25:42;;;;;;;3.45;3.00;;;;;;;12.91;93.79;100100.20;1689091;84;21070;-72
2022/10/05 07:28:30;;;;;;;2.85;2.58;;;;;;;12.98;93.52;100107.34;1674322;84;21332;-69
2022/10/05 07:31:06;;;;;;;6.20;2.40;;;;;;;13.05;91.09;100100.47;1676854;85;21490;-70
2022/10/05 07:34:03;;;;;;;5.08;2.85;;;;;;;13.06;91.57;100092.18;1671693;85;21045;-70
2022/10/05 07:40:39;;;;;;;3.00;2.33;;;;;;;13.09;90.22;100092.91;1677640;84;21639;-70
2022/10/05 07:44:00;;;;;;;4.35;2.50;;;;;;;13.06;89.56;100095.64;1670224;85;21572;-70
2022/10/05 07:46:51;;;;;;;8.40;2.60;;;;;;;13.13;89.65;100094.09;1669853;85;20975;-71
2022/10/05 07:49:48;;;;;;;3.55;2.33;;;;;;;13.18;89.01;100093.48;1674977;85;21116;-71
2022/10/05 07:52:25;;;;;;;7.70;2.72;;;;;;;13.20;88.66;100105.53;1679129;85;21121;-71
2022/10/05 07:55:07;;;;;;;4.67;2.50;;;;;;;13.27;88.00;100109.59;1673630;84;21069;-69
2022/10/05 07:57:52;;;;;;;6.45;2.87;;;;;;;13.39;88.07;100113.44;1690216;84;21248;-70
2022/10/05 08:00:23;;;;;;;9.08;3.40;;;;;;;13.55;86.65;100118.88;1683505;85;21106;-70
2022/10/05 08:03:05;;;;;;;8.28;3.65;;;;;;;13.63;85.90;100126.77;1683609;85;22160;-72
2022/10/05 08:05:37;;;;;;;3.67;1.95;;;;;;;13.69;85.32;100127.81;1687705;85;21061;-71
2022/10/05 08:08:19;;;;;;;6.67;2.57;;;;;;;13.75;82.63;100139.31;1687977;85;21068;-71
2022/10/05 08:11:04;;;;;;;4.35;2.35;;;;;;;13.73;82.30;100139.84;1687739;85;21671;-71
2022/10/05 08:13:55;;;;;;;5.25;1.90;;;;;;;13.72;81.34;100156.44;1682679;85;21101;-69
2022/10/05 08:16:27;;;;;;;5.42;2.35;;;;;;;13.72;81.34;100156.44;1654408;85;21583;-71
2022/10/05 08:19:02;;;;;;;12.55;2.10;;;;;;;13.71;79.78;100160.42;1687617;85;21050;-70
2022/10/05 08:21:44;;;;;;;7.72;2.15;;;;;;;13.64;79.02;100151.98;1687783;85;21072;-71
2022/10/05 08:24:35;;;;;;;3.45;2.02;;;;;;;13.59;79.24;100151.33;1687718;85;21177;-71
2022/10/05 08:27:18;;;;;;;6.15;2.30;;;;;;;13.56;79.85;100150.64;1687107;85;21030;-70
2022/10/05 08:30:04;;;;;;;3.25;1.65;;;;;;;13.65;80.42;100153.69;1680150;85;21262;-70
2022/10/05 08:33:04;;;;;;;5.90;1.62;;;;;;;13.86;77.70;100149.30;1675739;85;21462;-70
2022/10/05 08:35:43;;;;;;;2.50;1.40;;;;;;;13.88;72.70;100138.31;1687795;85;21065;-69
2022/10/05 08:38:15;;;;;;;4.45;2.15;;;;;;;13.76;74.20;100139.71;1683991;85;21161;-69
2022/10/05 08:41:24;;;;;;;2.25;1.60;;;;;;;13.71;76.20;100140.36;1687372;85;21101;-69
2022/10/05 08:44:05;;;;;;;7.10;2.05;;;;;;;13.66;76.18;100134.94;1681964;85;21568;-70
2022/10/05 08:46:58;;;;;;;2.37;1.80;;;;;;;13.60;76.13;100132.58;1687634;85;21026;-70
2022/10/05 08:50:09;;;;;;;4.28;1.80;;;;;;;13.53;75.25;100129.40;1672619;85;21110;-70
2022/10/05 08:53:02;;;;;;;5.60;2.37;;;;;;;13.44;76.11;100133.70;1687092;85;21171;-71
2022/10/05 08:55:52;;;;;;;4.10;1.85;;;;;;;13.43;77.30;100138.53;1674616;84;28265;-70
2022/10/05 08:58:50;;;;;;;6.90;2.45;;;;;;;13.46;77.74;100131.87;1678360;85;21018;-70
2022/10/05 09:01:50;;;;;;;6.35;1.57;;;;;;;13.55;77.11;100129.34;1680124;85;21018;-70
2022/10/05 09:04:45;;;;;;;3.72;1.60;;;;;;;13.67;76.21;100130.09;1638922;87;21105;-71
2022/10/05 09:07:50;;;;;;;7.65;1.50;;;;;;;13.79;74.83;100131.70;1644071;87;21291;-70
2022/10/05 09:10:46;;;;;;;5.28;1.67;;;;;;;13.91;74.97;100139.48;1679139;85;37771;-70
2022/10/05 09:13:36;;;;;;;6.85;1.70;;;;;;;14.07;73.63;100127.88;1646729;85;21534;-70
2022/10/05 09:16:27;;;;;;;6.67;3.12;;;;;;;14.16;72.28;100139.24;1666705;85;21062;-70
2022/10/05 09:19:44;;;;;;;7.78;1.70;;;;;;;14.19;73.09;100144.30;1677842;85;21058;-70
2022/10/05 09:22:36;;;;;;;6.42;2.10;;;;;;;14.24;71.96;100144.95;1679829;85;21167;-70
2022/10/05 09:25:24;;;;;;;3.17;1.40;;;;;;;14.32;72.40;100153.77;1647976;87;21090;-70
2022/10/05 09:27:56;;;;;;;3.55;1.90;;;;;;;14.32;72.87;100165.09;1676935;84;21051;-70
2022/10/05 09:30:59;;;;;;;1.95;1.52;;;;;;;14.32;73.55;100183.86;1678907;85;21042;-70
2022/10/05 09:34:20;;;;;;;3.30;1.55;;;;;;;14.32;73.15;100186.02;1679387;85;21543;-69
2022/10/05 09:37:19;;;;;;;4.25;1.98;;;;;;;14.19;73.00;100184.04;1648674;87;21190;-69
2022/10/05 09:40:26;;;;;;;2.90;1.47;;;;;;;14.19;73.00;100184.04;1679752;85;21530;-69
2022/10/05 09:43:19;;;;;;;5.50;1.95;;;;;;;14.21;72.31;100191.33;1679859;85;21529;-69
2022/10/05 09:46:14;;;;;;;9.13;3.77;;;;;;;14.21;72.88;100193.48;1680397;85;21013;-69
2022/10/05 09:49:27;;;;;;;2.47;1.55;;;;;;;14.20;72.56;100193.55;1680202;85;20995;-69
2022/10/05 09:52:19;;;;;;;2.20;1.35;;;;;;;14.16;72.31;100185.02;1649148;85;21195;-70
2022/10/05 09:55:06;;;;;;;9.48;1.67;;;;;;;14.19;71.54;100187.47;1680181;85;21467;-69
2022/10/05 09:57:46;;;;;;;2.90;1.60;;;;;;;14.26;72.44;100184.98;1642800;85;21046;-70
2022/10/05 10:00:30;;;;;;;6.55;2.12;;;;;;;14.39;72.07;100177.41;1657115;86;21074;-70
2022/10/05 10:03:08;;;;;;;8.78;2.80;;;;;;;14.49;71.21;100186.59;1601211;86;20973;-70
2022/10/05 10:06:11;;;;;;;4.15;1.70;;;;;;;14.57;71.33;100188.86;1659933;86;21359;-70
2022/10/05 10:08:56;;;;;;;4.50;1.52;;;;;;;14.60;70.55;100178.22;1659916;86;20982;-70
2022/10/05 10:11:38;;;;;;;5.65;1.90;;;;;;;14.68;70.43;100172.18;1654892;86;21013;-70
2022/10/05 10:14:27;;;;;;;3.83;1.75;;;;;;;14.80;70.13;100172.89;1654630;86;20974;-70
2022/10/05 10:17:28;;;;;;;12.33;2.17;;;;;;;14.88;69.09;100178.63;1626050;87;21147;-71
2022/10/05 10:20:27;;;;;;;3.25;1.45;;;;;;;14.85;68.34;100168.30;1565601;89;21124;-70
2022/10/05 10:23:33;;;;;;;8.55;1.62;;;;;;;14.83;68.15;100168.83;1598877;88;20975;-70
2022/10/05 10:26:18;;;;;;;5.95;1.77;;;;;;;14.81;68.09;100168.90;1573180;90;21090;-69
2022/10/05 10:29:16;;;;;;;2.00;1.40;;;;;;;14.78;68.35;100176.08;1611957;88;21031;-70
2022/10/05 10:32:06;;;;;;;4.72;1.77;;;;;;;14.75;68.08;100177.53;1601131;89;21153;-69
2022/10/05 10:34:48;;;;;;;5.28;1.90;;;;;;;14.73;69.35;100176.28;1577192;89;21535;-69
2022/10/05 10:37:39;;;;;;;3.30;1.52;;;;;;;14.76;69.48;100181.38;1624871;87;21035;-70
2022/10/05 10:40:37;;;;;;;5.28;3.62;;;;;;;14.78;67.85;100183.47;1608646;89;21002;-70
2022/10/05 10:43:52;;;;;;;6.33;2.08;;;;;;;14.77;67.77;100181.77;1624189;88;21121;-70
2022/10/05 10:47:00;;;;;;;2.87;1.60;;;;;;;14.83;67.54;100184.08;1593773;89;21246;-70
2022/10/05 10:49:56;;;;;;;6.20;2.40;;;;;;;14.94;67.45;100180.97;1669880;86;21879;-69
2022/10/05 10:52:52;;;;;;;3.62;1.77;;;;;;;14.99;67.57;100182.03;1613331;86;21081;-71
2022/10/05 10:55:35;;;;;;;11.38;2.55;;;;;;;14.90;66.33;100190.34;1659900;86;21422;-69
2022/10/05 10:58:43;;;;;;;1.77;1.20;;;;;;;14.79;66.87;100186.91;1670295;85;21046;-69
2022/10/05 11:01:25;;;;;;;7.12;1.92;;;;;;;14.76;66.33;100186.63;1677115;85;21101;-69
2022/10/05 11:04:20;;;;;;;3.80;1.35;;;;;;;14.76;64.76;100188.39;1688643;85;21241;-69
2022/10/05 11:07:21;;;;;;;3.70;1.67;;;;;;;14.69;64.76;100193.52;1689620;85;20966;-69
2022/10/05 11:10:21;;;;;;;6.45;1.37;;;;;;;14.57;65.29;100187.55;1689732;85;21012;-69
2022/10/05 11:13:28;;;;;;;4.83;1.00;;;;;;;14.46;65.87;100188.03;1689402;85;21058;-69
2022/10/05 11:16:48;;;;;;;4.75;1.20;;;;;;;14.34;64.89;100178.11;1689546;85;21093;-69
2022/10/05 11:19:23;;;;;;;;;;;;;;;14.16;65.03;100186.33;1692424;85;21570;-70
2022/10/05 11:22:03;;;;;;;2.27;1.30;;;;;;;14.00;65.61;100185.28;1689754;85;20142;-70
2022/10/05 11:24:57;;;;;;;6.15;2.05;;;;;;;13.89;65.95;100171.39;1689143;83;21691;-71
2022/10/05 11:28:08;;;;;;;4.50;1.75;;;;;;;13.93;67.57;100178.64;1619150;88;21036;-70
2022/10/05 11:31:09;;;;;;;2.42;1.20;;;;;;;13.93;67.57;100178.64;1649859;86;20981;-69
2022/10/05 11:34:11;;;;;;;3.25;1.20;;;;;;;14.19;67.12;100169.16;1643251;85;21263;-70
2022/10/05 11:37:17;;;;;;;4.10;1.50;;;;;;;14.43;65.86;100166.77;1658039;86;20968;-70
2022/10/05 11:40:15;;;;;;;1.92;1.10;;;;;;;14.87;65.61;100171.69;1672832;84;21509;-69
2022/10/05 11:43:15;;;;;;;5.92;1.27;;;;;;;14.87;65.61;100171.69;1652281;86;21104;-69
2022/10/05 11:46:10;;;;;;;3.72;1.30;;;;;;;15.09;65.06;100169.73;1596195;87;21062;-68
2022/10/05 11:48:48;;;;;;;4.10;1.07;;;;;;;15.27;62.81;100164.52;1648484;87;21951;-68
2022/10/05 11:52:05;;;;;;;4.00;1.00;;;;;;;15.33;61.35;100166.37;1648447;87;21522;-70
2022/10/05 11:54:59;;;;;;;2.35;1.00;;;;;;;15.36;61.34;100166.22;1638975;86;21030;-69
2022/10/05 11:57:45;;;;;;;2.12;1.00;;;;;;;15.41;61.93;100163.34;1658786;85;20990;-70
2022/10/05 12:00:32;;;;;;;1.07;0.65;;;;;;;15.47;61.08;100161.73;1659142;86;21006;-69
2022/10/05 12:03:20;;;;;;;2.02;0.95;;;;;;;15.46;61.03;100154.80;1656698;86;21172;-69
2022/10/05 12:06:20;;;;;;;6.08;1.20;;;;;;;15.44;61.16;100153.56;1658964;86;21007;-70
2022/10/05 12:09:09;;;;;;;9.65;1.85;;;;;;;15.46;60.94;100151.72;1659118;86;20974;-69
2022/10/05 12:12:15;;;;;;;5.15;1.10;;;;;;;15.50;61.67;100156.34;1659036;86;21019;-69
2022/10/05 12:15:02;;;;;;;13.05;1.65;;;;;;;15.57;61.48;100157.77;1659090;86;21558;-69
2022/10/05 12:17:53;;;;;;;1.87;0.93;;;;;;;15.60;61.42;100156.28;1656459;86;21299;-70
2022/10/05 12:20:38;;;;;;;2.02;1.25;;;;;;;15.64;60.74;100159.14;1659133;86;21566;-69
2022/10/05 12:23:15;;;;;;;3.25;0.93;;;;;;;15.68;60.69;100165.08;1659093;86;20991;-69
2022/10/05 12:26:04;;;;;;;4.37;1.12;;;;;;;15.67;59.76;100162.92;1659190;86;21058;-69
2022/10/05 12:28:53;;;;;;;1.77;0.82;;;;;;;15.66;60.27;100162.99;1652536;86;21470;-69
2022/10/05 12:31:40;;;;;;;8.48;1.92;;;;;;;15.61;60.19;100158.44;1659063;86;21463;-69
2022/10/05 12:34:25;;;;;;;3.40;0.82;;;;;;;15.53;60.35;100156.66;1659251;86;21019;-69
2022/10/05 12:37:07;;;;;;;1.57;0.78;;;;;;;15.49;60.55;100168.61;1658792;86;20986;-69
2022/10/05 12:39:51;;;;;;;5.42;1.00;;;;;;;15.46;60.28;100173.15;1656103;86;21015;-71
2022/10/05 12:42:54;;;;;;;8.50;1.32;;;;;;;15.41;59.15;100169.91;1659026;86;21013;-70
2022/10/05 12:46:05;;;;;;;3.50;1.17;;;;;;;15.33;59.79;100170.77;1659228;86;21130;-69
2022/10/05 12:48:43;;;;;;;1.95;0.80;;;;;;;15.30;60.42;100169.60;1658951;86;21022;-69
2022/10/05 12:51:21;;;;;;;2.83;0.90;;;;;;;15.25;60.88;100182.08;1659005;86;21019;-70
2022/10/05 12:54:05;;;;;;;5.97;0.98;;;;;;;15.21;60.07;100177.91;1659146;86;21034;-69
2022/10/05 12:56:54;;;;;;;3.92;0.80;;;;;;;15.13;60.52;100173.91;1659089;86;21022;-69
2022/10/05 12:59:48;;;;;;;1.67;0.80;;;;;;;15.06;61.04;100168.57;1640629;86;22281;-69
2022/10/05 13:02:42;;;;;;;8.13;2.90;;;;;;;15.04;61.82;100172.19;1612758;87;20978;-69
2022/10/05 13:05:32;;;;;;;2.87;1.52;;;;;;;15.03;61.54;100168.72;1613225;89;21021;-70
2022/10/05 13:08:06;;;;;;;;;;;;;;;15.00;61.89;100163.63;1627335;87;21594;-70
2022/10/05 13:10:42;;;;;;;3.02;0.80;;;;;;;14.94;61.51;100171.80;1636731;87;20153;-70